首页
METAR-TAF:

METAR-TAF

机场 :

吕德里茨, 纳米比亚

纬度: 26-41S, 经度: 015-15E, 海拔: 130米

当前天气观测

该预报发布于1小时和10分钟前的09:00 UTC
温度 17°C
湿度 48%
气压 1022 hPa

METAR: FYLZ 200900Z AUTO /////KT //// // ////// 17/06 Q1022

时间: 12:10 (10:10 UTC)

预报

该预报发布于2小时和10分钟前的08:00 UTC
预报有效从20日的 09点(UTC)到 20日的 18点(UTC)
风速12节,风向
能见度10公里或以上
1500米以下无云,无积雨云

TAF: FYLZ 200800Z 2009/2018 17012KT CAVOK

超过4000个机场的气象观测和天气预报(METAR&TAF报告)。

可查询的气象台以黄色和红色小点在地图上表示。

将鼠标移到小点上方,可查看气象台名称。

然后点击查看天气观测和预报。

如需切换地图:点击带黑十字的绿色按钮放大地图;点击带横线的绿色按钮缩小地图;或者点击绿色箭头查看邻近地区的地图。


METAR-TAF: